KPOC/POC METAR and TAF weather

Enter ICAO airport designator
Station Type Date Time Source
KPOC METAR 2019/08/25 13:47 UTC NOAA

KPOC 251347Z 00000KT 10SM CLR 19/17 A3000


Station Type Date Time Source
KPOC Decoded METAR 2019/08/25 13:47 UTC NOAA

Station name not available
Aug 25, 2019 - 09:47 AM EDT / 2019.08.25 1347 UTC
Wind: Calm:0
Visibility: 10 mile(s):0
Sky conditions: clear
Temperature: 66 F (19 C)
Dew Point: 62 F (17 C)
Relative Humidity: 88%
Pressure (altimeter): 30 in. Hg (1015 hPa)
ob: KPOC 251347Z 00000KT 10SM CLR 19/17 A3000
cycle: 14

Station Type Date Time Source
KPOC TAF UTC NOAA

Error!

Example: see airport list